createdAt,value
2022-08-03T00:00:33.495Z,2.13
2022-08-03T00:03:01.625Z,2.40
2022-08-03T00:05:29.465Z,2.22
2022-08-03T00:07:57.222Z,1.85
2022-08-03T00:10:26.570Z,2.45
2022-08-03T00:12:55.044Z,2.17
2022-08-03T00:15:22.910Z,2.15
2022-08-03T00:17:53.029Z,2.15
2022-08-03T00:20:22.255Z,2.10
2022-08-03T00:22:50.284Z,2.30
2022-08-03T00:25:19.224Z,2.25
2022-08-03T00:27:48.620Z,1.90
2022-08-03T00:30:18.822Z,2.40
2022-08-03T00:32:47.628Z,2.30
2022-08-03T00:35:32.568Z,2.22
2022-08-03T00:38:04.045Z,2.47
2022-08-03T00:40:31.901Z,2.15
2022-08-03T00:43:02.124Z,2.60
2022-08-03T00:45:31.666Z,2.10
2022-08-03T00:48:00.224Z,2.00
2022-08-03T00:50:30.871Z,2.70
2022-08-03T00:53:00.618Z,2.22
2022-08-03T00:55:28.826Z,2.50
2022-08-03T00:57:59.430Z,2.90
2022-08-03T01:02:56.751Z,2.03
2022-08-03T01:05:24.733Z,1.90
2022-08-03T01:08:04.443Z,2.00
2022-08-03T01:10:40.649Z,2.20
2022-08-03T01:14:02.389Z,1.83
2022-08-03T01:16:16.514Z,2.17
2022-08-03T01:18:48.485Z,2.10
2022-08-03T01:21:21.924Z,2.50
2022-08-03T01:24:13.698Z,2.58
2022-08-03T01:27:03.967Z,2.05
2022-08-03T01:29:53.260Z,1.90
2022-08-03T01:33:02.302Z,2.58
2022-08-03T01:35:17.536Z,2.45
2022-08-03T01:37:52.772Z,2.05
2022-08-03T01:40:23.127Z,2.10
2022-08-03T01:42:52.699Z,2.55
2022-08-03T01:45:23.577Z,2.25
2022-08-03T01:47:52.835Z,2.60
2022-08-03T01:50:23.430Z,2.00
2022-08-03T01:55:21.207Z,2.13
2022-08-03T01:58:05.674Z,2.10
2022-08-03T02:00:38.269Z,2.08
2022-08-03T02:03:08.168Z,2.17
2022-08-03T02:05:37.385Z,2.47
2022-08-03T02:08:08.558Z,2.28
2022-08-03T02:10:37.254Z,2.22
2022-08-03T02:13:07.706Z,1.70
2022-08-03T02:15:38.519Z,2.05
2022-08-03T02:18:09.650Z,1.85
2022-08-03T02:20:39.124Z,2.45
2022-08-03T02:23:07.521Z,2.55
2022-08-03T02:25:39.960Z,2.08
2022-08-03T02:28:11.625Z,2.30
2022-08-03T02:30:46.819Z,2.42
2022-08-03T02:33:25.640Z,2.25
2022-08-03T02:35:55.209Z,2.17
2022-08-03T02:38:29.126Z,1.90
2022-08-03T02:40:59.642Z,2.15
2022-08-03T02:46:10.727Z,2.97
2022-08-03T02:48:42.256Z,2.55
2022-08-03T02:51:10.816Z,2.65
2022-08-03T02:53:39.985Z,2.70
2022-08-03T02:56:09.907Z,2.58
2022-08-03T02:58:39.623Z,2.60
2022-08-03T03:01:09.171Z,2.47
2022-08-03T03:03:39.302Z,2.50
2022-08-03T03:06:15.248Z,2.90
2022-08-03T03:08:43.647Z,3.10
2022-08-03T03:11:12.615Z,3.47
2022-08-03T03:13:41.712Z,2.60
2022-08-03T03:16:13.941Z,2.95
2022-08-03T03:18:43.600Z,2.40
2022-08-03T03:21:12.576Z,2.67
2022-08-03T03:23:42.420Z,2.50
2022-08-03T03:26:10.729Z,2.50
2022-08-03T03:28:38.881Z,2.72
2022-08-03T03:31:07.861Z,2.30
2022-08-03T03:33:38.451Z,2.25
2022-08-03T03:38:35.187Z,2.80
2022-08-03T03:41:03.378Z,2.72
2022-08-03T03:43:31.330Z,2.70
2022-08-03T03:46:00.360Z,2.67
2022-08-03T03:48:28.929Z,2.95
2022-08-03T03:50:59.225Z,2.35
2022-08-03T03:53:27.049Z,1.80
2022-08-03T03:55:59.221Z,2.47
2022-08-03T03:58:32.148Z,2.60
2022-08-03T04:01:00.250Z,2.67
2022-08-03T04:03:28.290Z,2.35
2022-08-03T04:06:13.531Z,2.80
2022-08-03T04:09:15.119Z,2.08
2022-08-03T04:11:48.709Z,2.78
2022-08-03T04:14:21.095Z,2.60
2022-08-03T04:16:52.850Z,2.90
2022-08-03T04:19:28.126Z,2.95
2022-08-03T04:22:00.223Z,2.55
2022-08-03T04:24:35.073Z,2.90
2022-08-03T04:27:05.947Z,3.10
2022-08-03T04:29:36.028Z,2.92
2022-08-03T04:32:09.185Z,3.08
2022-08-03T04:34:36.980Z,2.40
2022-08-03T04:37:11.955Z,2.20
2022-08-03T04:39:44.107Z,2.28
2022-08-03T04:42:15.120Z,2.20
2022-08-03T04:44:45.445Z,2.60
2022-08-03T04:47:13.238Z,2.63
2022-08-03T04:49:41.605Z,2.35
2022-08-03T04:52:10.870Z,2.30
2022-08-03T04:54:50.601Z,2.42
2022-08-03T04:57:22.921Z,2.17
2022-08-03T04:59:58.153Z,5.03
2022-08-03T05:02:31.055Z,2.58
2022-08-03T05:04:59.240Z,3.15
2022-08-03T05:07:35.529Z,2.80
2022-08-03T05:10:14.682Z,2.78
2022-08-03T05:12:44.850Z,2.83
2022-08-03T05:15:13.096Z,2.78
2022-08-03T05:17:41.716Z,2.75
2022-08-03T05:20:11.068Z,2.50
2022-08-03T05:22:38.849Z,3.00
2022-08-03T05:25:08.777Z,2.50
2022-08-03T05:27:36.762Z,2.92
2022-08-03T05:30:30.542Z,3.28
2022-08-03T05:32:54.416Z,3.05
2022-08-03T05:35:56.096Z,3.10
2022-08-03T05:38:10.412Z,3.72
2022-08-03T05:40:39.823Z,3.95
2022-08-03T05:43:24.581Z,4.32
2022-08-03T05:46:11.457Z,3.75
2022-08-03T05:48:40.249Z,3.97
2022-08-03T05:51:11.549Z,3.50
2022-08-03T05:53:40.218Z,3.75
2022-08-03T05:56:13.542Z,3.20
2022-08-03T05:58:43.365Z,3.40
2022-08-03T06:01:11.468Z,3.78
2022-08-03T06:03:39.592Z,3.03
2022-08-03T06:06:07.519Z,3.75
2022-08-03T06:08:36.302Z,3.10
2022-08-03T06:11:04.783Z,3.28
2022-08-03T06:13:34.060Z,2.97
2022-08-03T06:16:02.146Z,3.83
2022-08-03T06:18:29.935Z,3.78
2022-08-03T06:20:57.743Z,3.40
2022-08-03T06:23:53.155Z,3.30
2022-08-03T06:26:22.833Z,3.22
2022-08-03T06:28:54.286Z,3.22
2022-08-03T06:31:24.031Z,3.00
2022-08-03T06:34:34.447Z,3.67
2022-08-03T06:36:40.241Z,2.67
2022-08-03T06:39:08.724Z,3.40
2022-08-03T06:41:38.031Z,3.03
2022-08-03T06:44:14.743Z,2.85
2022-08-03T06:46:43.335Z,2.67
2022-08-03T06:49:11.327Z,2.28
2022-08-03T06:52:04.934Z,2.72
2022-08-03T06:54:27.115Z,2.80
2022-08-03T06:56:55.400Z,2.75
2022-08-03T07:00:09.187Z,2.40
2022-08-03T07:02:12.449Z,2.50
2022-08-03T07:04:46.997Z,2.55
2022-08-03T07:07:14.963Z,2.55
2022-08-03T07:09:42.748Z,2.45
2022-08-03T07:12:25.332Z,1.77
2022-08-03T07:15:00.033Z,2.15
2022-08-03T07:17:29.216Z,2.00
2022-08-03T07:19:57.104Z,2.17
2022-08-03T07:22:25.114Z,2.35
2022-08-03T07:24:52.919Z,1.60
2022-08-03T07:27:21.235Z,1.90
2022-08-03T07:29:49.081Z,1.77
2022-08-03T07:32:18.499Z,1.85
2022-08-03T07:34:46.607Z,1.75
2022-08-03T07:37:14.403Z,1.83
2022-08-03T07:39:42.220Z,1.80
2022-08-03T07:42:10.120Z,1.75
2022-08-03T07:44:39.308Z,1.90
2022-08-03T07:47:07.188Z,1.73
2022-08-03T07:49:42.251Z,1.85
2022-08-03T07:52:28.298Z,1.70
2022-08-03T07:54:57.427Z,1.70
2022-08-03T07:57:25.276Z,1.65
2022-08-03T08:00:01.390Z,1.63
2022-08-03T08:02:39.869Z,1.95
2022-08-03T08:05:10.768Z,1.90
2022-08-03T08:07:39.325Z,1.75
2022-08-03T08:10:08.113Z,1.83
2022-08-03T08:12:35.958Z,1.60
2022-08-03T08:15:04.520Z,1.58
2022-08-03T08:17:32.329Z,1.67
2022-08-03T08:20:00.139Z,1.67
2022-08-03T08:22:30.678Z,1.73
2022-08-03T08:25:01.184Z,1.83
2022-08-03T08:28:31.372Z,1.50
2022-08-03T08:30:19.801Z,1.65
2022-08-03T08:32:48.004Z,1.23
2022-08-03T08:35:16.473Z,1.60
2022-08-03T08:37:51.268Z,1.92
2022-08-03T08:40:22.238Z,1.60
2022-08-03T08:42:58.472Z,1.55
2022-08-03T08:45:27.848Z,1.48
2022-08-03T08:48:01.077Z,1.83
2022-08-03T08:50:31.178Z,1.45
2022-08-03T08:53:03.042Z,1.50
2022-08-03T08:55:58.808Z,1.88
2022-08-03T08:58:22.565Z,1.33
2022-08-03T09:00:51.653Z,1.60
2022-08-03T09:03:26.155Z,1.83
2022-08-03T09:06:00.359Z,1.48
2022-08-03T09:08:29.984Z,1.48
2022-08-03T09:10:57.867Z,1.73
2022-08-03T09:13:26.237Z,1.63
2022-08-03T09:16:15.714Z,1.60
2022-08-03T09:18:45.245Z,1.25
2022-08-03T09:21:32.541Z,1.40
2022-08-03T09:24:06.222Z,1.30
2022-08-03T09:26:38.343Z,1.23
2022-08-03T09:29:13.160Z,1.30
2022-08-03T09:31:44.898Z,1.15
2022-08-03T09:34:15.369Z,1.52
2022-08-03T09:36:45.716Z,1.23
2022-08-03T09:39:16.892Z,1.23
2022-08-03T09:41:47.407Z,0.93
2022-08-03T09:44:25.761Z,1.40
2022-08-03T09:46:55.639Z,1.15
2022-08-03T09:49:24.362Z,1.35
2022-08-03T09:52:33.195Z,1.30
2022-08-03T09:54:42.650Z,1.10
2022-08-03T09:57:21.807Z,1.20
2022-08-03T09:59:49.773Z,1.23
2022-08-03T10:02:25.354Z,1.20
2022-08-03T10:04:54.198Z,1.23
2022-08-03T10:07:23.682Z,1.10
2022-08-03T10:09:58.342Z,1.15
2022-08-03T10:12:48.124Z,1.40
2022-08-03T10:18:03.983Z,1.13
2022-08-03T10:20:34.430Z,1.20
2022-08-03T10:23:03.884Z,1.30
2022-08-03T10:25:35.150Z,1.17
2022-08-03T10:28:05.400Z,1.58
2022-08-03T10:30:34.244Z,1.45
2022-08-03T10:33:12.307Z,1.23
2022-08-03T10:35:58.171Z,1.17
2022-08-03T10:38:32.187Z,1.20
2022-08-03T10:41:03.072Z,1.17
2022-08-03T10:43:37.304Z,1.20
2022-08-03T10:46:09.050Z,1.30
2022-08-03T10:48:37.929Z,1.50
2022-08-03T10:51:07.542Z,1.37
2022-08-03T10:53:37.468Z,1.20
2022-08-03T10:56:46.654Z,1.75
2022-08-03T10:59:12.274Z,1.73
2022-08-03T11:01:58.589Z,1.25
2022-08-03T11:04:29.217Z,1.13
2022-08-03T11:07:22.176Z,1.83
2022-08-03T11:09:51.753Z,1.50
2022-08-03T11:12:30.101Z,1.25
2022-08-03T11:15:00.827Z,1.08
2022-08-03T11:19:57.871Z,1.20
2022-08-03T11:22:28.270Z,0.93
2022-08-03T11:25:00.251Z,1.35
2022-08-03T11:27:33.941Z,1.00
2022-08-03T11:30:05.396Z,1.27
2022-08-03T11:32:53.064Z,1.25
2022-08-03T11:35:22.841Z,1.23
2022-08-03T11:38:12.051Z,1.10
2022-08-03T11:40:42.815Z,1.02
2022-08-03T11:43:45.282Z,1.63
2022-08-03T11:46:28.609Z,0.98
2022-08-03T11:49:09.942Z,1.17
2022-08-03T11:51:40.009Z,1.00
2022-08-03T11:54:08.047Z,1.10
2022-08-03T11:56:45.882Z,1.40
2022-08-03T11:59:20.255Z,1.10
2022-08-03T12:01:48.946Z,1.33
2022-08-03T12:04:17.189Z,1.00
2022-08-03T12:06:59.587Z,0.88
2022-08-03T12:09:27.627Z,1.02
2022-08-03T12:12:00.435Z,0.95
2022-08-03T12:14:48.599Z,1.10
2022-08-03T12:19:47.084Z,1.20
2022-08-03T12:22:16.730Z,1.17
2022-08-03T12:27:24.502Z,1.60
2022-08-03T12:29:57.033Z,0.93
2022-08-03T12:32:27.498Z,1.10
2022-08-03T12:35:00.070Z,1.20
2022-08-03T12:37:28.606Z,1.20
2022-08-03T12:40:01.685Z,1.38
2022-08-03T12:42:32.503Z,0.95
2022-08-03T12:45:01.891Z,1.65
2022-08-03T12:47:29.656Z,1.33
2022-08-03T12:49:57.393Z,1.00
2022-08-03T12:52:27.202Z,1.35
2022-08-03T12:54:59.855Z,1.17
2022-08-03T12:57:41.750Z,2.55
2022-08-03T13:00:21.564Z,1.30
2022-08-03T13:03:38.548Z,1.30
2022-08-03T13:05:50.054Z,1.38
2022-08-03T13:08:21.051Z,0.98
2022-08-03T13:10:49.683Z,1.10
2022-08-03T13:13:17.599Z,1.13
2022-08-03T13:15:48.109Z,1.15
2022-08-03T13:18:17.342Z,1.17
2022-08-03T13:20:45.603Z,1.10
2022-08-03T13:23:22.046Z,0.88
2022-08-03T13:25:55.668Z,1.10
2022-08-03T13:28:24.281Z,1.10
2022-08-03T13:30:54.760Z,1.20
2022-08-03T13:33:22.707Z,1.20
2022-08-03T13:35:50.575Z,1.20
2022-08-03T13:38:18.389Z,1.20
2022-08-03T13:40:49.493Z,1.30
2022-08-03T13:43:17.909Z,0.90
2022-08-03T13:45:51.290Z,1.05
2022-08-03T13:48:37.291Z,1.90
2022-08-03T13:51:22.104Z,1.10
2022-08-03T13:53:51.564Z,1.10
2022-08-03T13:56:19.380Z,1.00
2022-08-03T13:58:47.234Z,1.00
2022-08-03T14:01:15.099Z,1.30
2022-08-03T14:03:44.254Z,1.00
2022-08-03T14:06:11.992Z,1.15
2022-08-03T14:08:39.826Z,1.38
2022-08-03T14:11:08.600Z,1.10
2022-08-03T14:13:36.381Z,1.40
2022-08-03T14:16:09.944Z,1.08
2022-08-03T14:18:37.879Z,1.10
2022-08-03T14:21:10.583Z,1.20
2022-08-03T14:23:38.654Z,0.90
2022-08-03T14:26:07.228Z,1.17
2022-08-03T14:28:35.102Z,1.10
2022-08-03T14:31:03.781Z,1.10
2022-08-03T14:33:31.733Z,0.90
2022-08-03T14:35:59.756Z,1.13
2022-08-03T14:38:28.987Z,1.10
2022-08-03T14:40:56.787Z,0.98
2022-08-03T14:43:24.788Z,1.13
2022-08-03T14:45:53.979Z,1.30
2022-08-03T14:50:33.249Z,1.20
2022-08-03T14:51:10.459Z,1.30
2022-08-03T14:53:39.634Z,1.13
2022-08-03T14:56:10.349Z,1.20
2022-08-03T14:58:39.432Z,1.00
2022-08-03T15:02:04.587Z,1.23
2022-08-03T15:03:56.352Z,1.08
2022-08-03T15:06:24.254Z,1.30
2022-08-03T15:09:21.242Z,1.10
2022-08-03T15:11:42.092Z,1.00
2022-08-03T15:14:10.194Z,1.20
2022-08-03T15:16:41.456Z,1.10
2022-08-03T15:20:02.416Z,0.95
2022-08-03T15:21:57.115Z,1.13
2022-08-03T15:24:30.366Z,1.02
2022-08-03T15:26:58.170Z,1.00
2022-08-03T15:30:06.812Z,1.10
2022-08-03T15:32:13.958Z,1.40
2022-08-03T15:34:50.438Z,1.30
2022-08-03T15:37:19.679Z,1.10
2022-08-03T15:39:58.451Z,1.00
2022-08-03T15:42:29.556Z,1.30
2022-08-03T15:44:57.485Z,0.80
2022-08-03T15:47:25.282Z,0.82
2022-08-03T15:49:53.043Z,0.93
2022-08-03T15:52:20.911Z,0.98
2022-08-03T15:54:50.283Z,1.20
2022-08-03T15:57:18.286Z,1.00
2022-08-03T15:59:46.349Z,0.95
2022-08-03T16:02:14.138Z,1.20
2022-08-03T16:04:41.996Z,1.10
2022-08-03T16:07:12.878Z,1.00
2022-08-03T16:09:42.078Z,1.42
2022-08-03T16:14:52.313Z,1.42
2022-08-03T16:17:20.726Z,1.10
2022-08-03T16:19:48.811Z,1.00
2022-08-03T16:22:17.388Z,1.30
2022-08-03T16:24:47.580Z,1.08
2022-08-03T16:27:36.619Z,1.13
2022-08-03T16:30:05.106Z,1.00
2022-08-03T16:32:32.951Z,1.20
2022-08-03T16:35:01.266Z,1.00
2022-08-03T16:37:38.618Z,0.98
2022-08-03T16:40:19.053Z,1.40
2022-08-03T16:42:48.799Z,1.10
2022-08-03T16:45:16.621Z,0.90
2022-08-03T16:47:44.762Z,1.23
2022-08-03T16:50:19.032Z,1.13
2022-08-03T16:52:48.500Z,1.10
2022-08-03T16:55:18.372Z,1.00
2022-08-03T16:58:07.334Z,0.73
2022-08-03T17:00:41.103Z,1.10
2022-08-03T17:03:18.581Z,1.00
2022-08-03T17:05:49.562Z,1.20
2022-08-03T17:08:27.002Z,1.10
2022-08-03T17:10:56.349Z,1.13
2022-08-03T17:13:27.672Z,1.10
2022-08-03T17:16:09.222Z,1.10
2022-08-03T17:18:49.488Z,1.15
2022-08-03T17:21:22.972Z,1.10
2022-08-03T17:23:58.312Z,1.17
2022-08-03T17:26:30.607Z,1.05
2022-08-03T17:29:13.216Z,1.10
2022-08-03T17:31:49.706Z,0.77
2022-08-03T17:34:18.966Z,1.30
2022-08-03T17:37:04.799Z,1.38
2022-08-03T17:39:58.914Z,1.30
2022-08-03T17:42:38.797Z,1.13
2022-08-03T17:45:15.592Z,1.10
2022-08-03T17:47:44.096Z,1.27
2022-08-03T17:50:25.731Z,1.38
2022-08-03T17:53:39.588Z,1.13
2022-08-03T17:56:42.669Z,1.00
2022-08-03T17:59:44.371Z,1.42
2022-08-03T18:02:47.638Z,1.15
2022-08-03T18:05:18.639Z,1.15
2022-08-03T18:07:59.257Z,1.08
2022-08-03T18:10:36.166Z,1.08
2022-08-03T18:13:23.870Z,1.25
2022-08-03T18:15:59.474Z,1.30
2022-08-03T18:18:33.342Z,1.10
2022-08-03T18:21:04.601Z,1.40
2022-08-03T18:23:36.555Z,1.15
2022-08-03T18:26:06.789Z,1.20
2022-08-03T18:28:35.919Z,1.10
2022-08-03T18:31:05.719Z,0.90
2022-08-03T18:34:18.020Z,1.17
2022-08-03T18:36:29.914Z,1.27
2022-08-03T18:38:59.982Z,1.00
2022-08-03T18:41:33.427Z,1.20
2022-08-03T18:44:08.490Z,1.08
2022-08-03T18:47:08.084Z,1.20
2022-08-03T18:49:58.247Z,1.13
2022-08-03T18:52:31.983Z,1.23
2022-08-03T18:55:19.628Z,1.27
2022-08-03T18:57:53.261Z,1.23
2022-08-03T19:00:24.482Z,1.88
2022-08-03T19:03:12.472Z,1.50
2022-08-03T19:06:05.908Z,3.17
2022-08-03T19:08:47.936Z,3.40
2022-08-03T19:11:27.847Z,3.67
2022-08-03T19:13:59.249Z,2.53
2022-08-03T19:16:32.858Z,2.85
2022-08-03T19:19:03.018Z,3.08
2022-08-03T19:21:35.724Z,2.58
2022-08-03T19:24:09.687Z,2.00
2022-08-03T19:26:39.562Z,2.20
2022-08-03T19:29:10.817Z,2.70
2022-08-03T19:31:59.191Z,2.28
2022-08-03T19:34:29.668Z,2.00
2022-08-03T19:36:59.788Z,2.50
2022-08-03T19:39:27.811Z,3.75
2022-08-03T19:42:20.486Z,2.58
2022-08-03T19:44:56.525Z,2.45
2022-08-03T19:47:31.570Z,2.28
2022-08-03T19:50:10.414Z,2.42
2022-08-03T19:52:48.209Z,2.38
2022-08-03T19:55:18.261Z,2.35
2022-08-03T19:57:49.214Z,2.08
2022-08-03T20:00:26.595Z,2.58
2022-08-03T20:02:55.032Z,2.90
2022-08-03T20:05:22.957Z,2.38
2022-08-03T20:07:53.433Z,2.45
2022-08-03T20:10:22.206Z,2.30
2022-08-03T20:12:50.814Z,2.65
2022-08-03T20:15:30.936Z,3.00
2022-08-03T20:18:00.615Z,2.35
2022-08-03T20:20:31.875Z,3.08
2022-08-03T20:23:06.867Z,2.85
2022-08-03T20:25:48.924Z,3.05
2022-08-03T20:28:31.727Z,2.33
2022-08-03T20:31:00.117Z,2.75
2022-08-03T20:33:45.884Z,3.25
2022-08-03T20:36:17.813Z,4.95
2022-08-03T20:38:48.209Z,2.47
2022-08-03T20:41:16.473Z,2.90
2022-08-03T20:43:44.442Z,2.78
2022-08-03T20:46:31.756Z,2.78
2022-08-03T20:49:00.231Z,2.42
2022-08-03T20:51:49.025Z,2.65
2022-08-03T20:54:30.906Z,2.80
2022-08-03T20:57:00.779Z,3.55
2022-08-03T20:59:47.364Z,3.17
2022-08-03T21:02:29.619Z,2.80
2022-08-03T21:05:02.819Z,2.58
2022-08-03T21:08:04.062Z,2.42
2022-08-03T21:10:28.528Z,3.05
2022-08-03T21:13:16.003Z,2.80
2022-08-03T21:16:06.516Z,3.42
2022-08-03T21:18:38.038Z,2.63
2022-08-03T21:21:07.817Z,2.38
2022-08-03T21:23:47.567Z,2.50
2022-08-03T21:26:19.803Z,2.70
2022-08-03T21:28:48.515Z,2.58
2022-08-03T21:31:24.328Z,2.30
2022-08-03T21:33:55.833Z,2.20
2022-08-03T21:36:23.745Z,2.03
2022-08-03T21:38:56.861Z,2.47
2022-08-03T21:41:27.929Z,2.47
2022-08-03T21:43:55.969Z,2.50
2022-08-03T21:46:25.013Z,2.13
2022-08-03T21:48:56.262Z,1.92
2022-08-03T21:51:27.257Z,2.10
2022-08-03T21:54:02.639Z,1.75
2022-08-03T21:56:41.502Z,2.08
2022-08-03T21:59:16.814Z,1.80
2022-08-03T22:01:49.013Z,2.20
2022-08-03T22:04:50.351Z,2.38
2022-08-03T22:07:08.480Z,2.40
2022-08-03T22:09:36.715Z,2.70
2022-08-03T22:12:06.946Z,2.58
2022-08-03T22:14:34.823Z,2.28
2022-08-03T22:17:06.240Z,2.38
2022-08-03T22:19:35.218Z,2.40
2022-08-03T22:22:06.138Z,1.95
2022-08-03T22:24:37.206Z,2.28
2022-08-03T22:27:24.233Z,1.73
2022-08-03T22:29:53.895Z,1.83
2022-08-03T22:32:21.679Z,2.03
2022-08-03T22:34:50.447Z,2.42
2022-08-03T22:37:21.088Z,2.78
2022-08-03T22:39:50.670Z,2.40
2022-08-03T22:42:21.050Z,2.38
2022-08-03T22:44:50.482Z,2.92
2022-08-03T22:47:22.564Z,2.42
2022-08-03T22:50:31.209Z,2.20
2022-08-03T22:52:41.986Z,1.88
2022-08-03T22:55:13.130Z,1.80
2022-08-03T22:57:56.185Z,1.73
2022-08-03T23:00:24.741Z,1.50
2022-08-03T23:02:55.021Z,1.75
2022-08-03T23:06:00.476Z,2.47
2022-08-03T23:10:47.042Z,2.05
2022-08-03T23:13:18.223Z,1.83
2022-08-03T23:15:53.531Z,2.10
2022-08-03T23:18:22.437Z,1.95
2022-08-03T23:20:51.328Z,2.20
2022-08-03T23:23:20.731Z,2.08
2022-08-03T23:25:50.370Z,1.55
2022-08-03T23:28:19.973Z,2.13
2022-08-03T23:30:50.997Z,1.70
2022-08-03T23:33:19.051Z,2.10
2022-08-03T23:36:29.005Z,2.20
2022-08-03T23:38:47.040Z,1.73
2022-08-03T23:41:17.647Z,2.35
2022-08-03T23:43:53.861Z,2.00
2022-08-03T23:46:22.627Z,2.25
2022-08-03T23:48:51.379Z,3.35
2022-08-03T23:51:27.566Z,2.33
2022-08-03T23:54:02.214Z,2.15
2022-08-03T23:56:38.354Z,2.15
2022-08-03T23:59:15.134Z,1.88
